PWSweather.com
Personal Weather Stations
Station Observations
KMAMEDFI2
Medfield, MA 02052

Medfield, MA 02052

Lat: 42.1900822, Lon: -71.3296889

Elevation: 138

Station Type: Rainwise WS MK-III

http://www.medfieldweather.com

High Low Average
Temperature 26.4°F-3.1°C 2.4°F-16.4°C 13.2°F-10.4°C
Dew Point 9.3°F-12.6°C -8.5°F-22.5°C -0.8°F-18.2°C
Winds 15.0 mph 24.1 kmh Calm Calm 3.0 mph WSW4.8 kmh WSW
Wind Gusts 16.1 mph25.9 kmh -- 5.0 mph8.0 kmh
Humidity 75% 30% 55%
Pressure 30.52 in1033.5 mb 30.09 in1019.0 mb -
Precipitation 0.01 in0.3 mm - -
Hour Temp Dew Point Humidity Winds Wind Gusts Pressure Precip Precip Rate Daily Precip Total
12:00 AM 3.2°F-16.0°C -7.2°F-21.8°C 61% 8.1 mph WNW13.0 kmh WNW 10.4 mph16.7 kmh 30.06 in1017.9 mb - 0.00 in0.0 mm 0.00 in0.0 mm
12:10 AM 3.3°F-15.9°C -7.5°F-21.9°C 60% 8.1 mph WSW13.0 kmh WSW 13.8 mph22.2 kmh 30.07 in1018.3 mb - 0.00 in0.0 mm 0.00 in0.0 mm
12:20 AM 3.0°F-16.1°C -7.1°F-21.7°C 62% 5.8 mph W9.3 kmh W 9.2 mph14.8 kmh 30.08 in1018.6 mb - 0.00 in0.0 mm 0.00 in0.0 mm
12:30 AM 2.9°F-16.2°C -7.5°F-21.9°C 61% 6.9 mph W11.1 kmh W 8.1 mph13.0 kmh 30.07 in1018.3 mb - 0.00 in0.0 mm 0.00 in0.0 mm
12:40 AM 2.8°F-16.2°C -7.6°F-22.0°C 61% 4.6 mph WSW7.4 kmh WSW 10.4 mph16.7 kmh 30.08 in1018.6 mb - 0.00 in0.0 mm 0.00 in0.0 mm
12:50 AM 2.7°F-16.3°C -7.7°F-22.1°C 61% 4.6 mph W7.4 kmh W 3.5 mph5.6 kmh 30.08 in1018.6 mb - 0.00 in0.0 mm 0.00 in0.0 mm
01:00 AM 2.6°F-16.3°C -8.1°F-22.3°C 60% 3.5 mph W5.6 kmh W 8.1 mph13.0 kmh 30.09 in1019.0 mb - 0.00 in0.0 mm 0.00 in0.0 mm
01:10 AM 2.8°F-16.2°C -8.0°F-22.2°C 60% 3.5 mph W5.6 kmh W 8.1 mph13.0 kmh 30.09 in1019.0 mb - 0.00 in0.0 mm 0.00 in0.0 mm
01:20 AM 2.4°F-16.4°C -7.7°F-22.1°C 62% 3.5 mph NW5.6 kmh NW 5.8 mph9.3 kmh 30.09 in1019.0 mb - 0.00 in0.0 mm 0.00 in0.0 mm
01:30 AM 2.4°F-16.4°C -8.3°F-22.4°C 60% 6.9 mph WNW11.1 kmh WNW 11.5 mph18.5 kmh 30.09 in1019.0 mb - 0.00 in0.0 mm 0.00 in0.0 mm
01:40 AM 2.6°F-16.3°C -8.5°F-22.5°C 59% 3.5 mph SW5.6 kmh SW 3.5 mph5.6 kmh 30.10 in1019.3 mb - 0.00 in0.0 mm 0.00 in0.0 mm
01:50 AM 2.4°F-16.4°C -7.3°F-21.8°C 63% 4.6 mph WSW7.4 kmh WSW 9.2 mph14.8 kmh 30.10 in1019.3 mb - 0.00 in0.0 mm 0.00 in0.0 mm
02:00 AM 2.6°F-16.3°C -7.8°F-22.1°C 61% 5.8 mph WSW9.3 kmh WSW 8.1 mph13.0 kmh 30.10 in1019.3 mb - 0.00 in0.0 mm 0.00 in0.0 mm
02:10 AM 2.4°F-16.4°C -8.0°F-22.2°C 61% 2.3 mph WSW3.7 kmh WSW 3.5 mph5.6 kmh 30.10 in1019.3 mb - 0.00 in0.0 mm 0.00 in0.0 mm
02:20 AM 2.4°F-16.4°C -8.0°F-22.2°C 61% Calm Calm 1.2 mph1.9 kmh 30.11 in1019.6 mb - 0.00 in0.0 mm 0.00 in0.0 mm
02:30 AM 2.4°F-16.4°C -8.3°F-22.4°C 60% 3.5 mph W5.6 kmh W 10.4 mph16.7 kmh 30.11 in1019.6 mb - 0.00 in0.0 mm 0.00 in0.0 mm
02:40 AM 2.5°F-16.4°C -8.2°F-22.3°C 60% Calm Calm 2.3 mph3.7 kmh 30.12 in1020.0 mb - 0.00 in0.0 mm 0.00 in0.0 mm
02:50 AM 2.6°F-16.3°C -8.1°F-22.3°C 60% 1.2 mph NW1.9 kmh NW 3.5 mph5.6 kmh 30.13 in1020.3 mb - 0.00 in0.0 mm 0.00 in0.0 mm
03:00 AM 2.8°F-16.2°C -7.6°F-22.0°C 61% 3.5 mph SW5.6 kmh SW 5.8 mph9.3 kmh 30.13 in1020.3 mb - 0.00 in0.0 mm 0.00 in0.0 mm
03:10 AM 2.9°F-16.2°C -7.9°F-22.2°C 60% 2.3 mph NNW3.7 kmh NNW 5.8 mph9.3 kmh 30.14 in1020.7 mb - 0.00 in0.0 mm 0.00 in0.0 mm
03:20 AM 3.3°F-15.9°C -7.8°F-22.1°C 59% 4.6 mph WNW7.4 kmh WNW 8.1 mph13.0 kmh 30.14 in1020.7 mb - 0.00 in0.0 mm 0.00 in0.0 mm
03:30 AM 4.2°F-15.4°C -8.1°F-22.3°C 56% 6.9 mph SW11.1 kmh SW 11.5 mph18.5 kmh 30.14 in1020.7 mb - 0.00 in0.0 mm 0.00 in0.0 mm
03:40 AM 4.1°F-15.5°C -7.4°F-21.9°C 58% 3.5 mph W5.6 kmh W 8.1 mph13.0 kmh 30.15 in1021.0 mb - 0.00 in0.0 mm 0.00 in0.0 mm
03:50 AM 4.3°F-15.4°C -7.6°F-22.0°C 57% 8.1 mph NW13.0 kmh NW 8.1 mph13.0 kmh 30.16 in1021.3 mb - 0.00 in0.0 mm 0.00 in0.0 mm
04:00 AM 4.2°F-15.4°C -7.3°F-21.8°C 58% 10.4 mph WSW16.7 kmh WSW 15.0 mph24.1 kmh 30.16 in1021.3 mb - 0.00 in0.0 mm 0.00 in0.0 mm
04:10 AM 4.2°F-15.4°C -7.7°F-22.1°C 57% 5.8 mph W9.3 kmh W 6.9 mph11.1 kmh 30.16 in1021.3 mb - 0.00 in0.0 mm 0.00 in0.0 mm
04:20 AM 4.3°F-15.4°C -7.6°F-22.0°C 57% 4.6 mph WSW7.4 kmh WSW 9.2 mph14.8 kmh 30.18 in1022.0 mb - 0.00 in0.0 mm 0.00 in0.0 mm
04:30 AM 4.3°F-15.4°C -7.3°F-21.8°C 58% 15.0 mph W24.1 kmh W 16.1 mph25.9 kmh 30.18 in1022.0 mb - 0.00 in0.0 mm 0.00 in0.0 mm
04:40 AM 4.1°F-15.5°C -7.1°F-21.7°C 59% Calm Calm 1.2 mph1.9 kmh 30.19 in1022.4 mb - 0.00 in0.0 mm 0.00 in0.0 mm
04:50 AM 3.8°F-15.7°C -7.4°F-21.9°C 59% 2.3 mph S3.7 kmh S 2.3 mph3.7 kmh 30.20 in1022.7 mb - 0.00 in0.0 mm 0.00 in0.0 mm
05:00 AM 3.8°F-15.7°C -7.0°F-21.7°C 60% 2.3 mph SW3.7 kmh SW 5.8 mph9.3 kmh 30.21 in1023.0 mb - 0.00 in0.0 mm 0.00 in0.0 mm
05:10 AM 3.8°F-15.7°C -7.4°F-21.9°C 59% 3.5 mph W5.6 kmh W 2.3 mph3.7 kmh 30.21 in1023.0 mb - 0.00 in0.0 mm 0.00 in0.0 mm
05:20 AM 3.8°F-15.7°C -7.4°F-21.9°C 59% 2.3 mph W3.7 kmh W 2.3 mph3.7 kmh 30.22 in1023.4 mb - 0.00 in0.0 mm 0.00 in0.0 mm
05:30 AM 3.8°F-15.7°C -7.0°F-21.7°C 60% 3.5 mph NW5.6 kmh NW 15.0 mph24.1 kmh 30.22 in1023.4 mb - 0.00 in0.0 mm 0.00 in0.0 mm
05:40 AM 4.3°F-15.4°C -6.9°F-21.6°C 59% 6.9 mph NW11.1 kmh NW 10.4 mph16.7 kmh 30.23 in1023.7 mb - 0.00 in0.0 mm 0.00 in0.0 mm
05:50 AM 4.5°F-15.3°C -6.0°F-21.1°C 61% 5.8 mph WNW9.3 kmh WNW 11.5 mph18.5 kmh 30.25 in1024.4 mb - 0.00 in0.0 mm 0.00 in0.0 mm
06:00 AM 4.8°F-15.1°C -6.1°F-21.2°C 60% 3.5 mph NW5.6 kmh NW 6.9 mph11.1 kmh 30.26 in1024.7 mb - 0.00 in0.0 mm 0.00 in0.0 mm
06:10 AM 4.9°F-15.1°C -6.7°F-21.5°C 58% 3.5 mph WSW5.6 kmh WSW 8.1 mph13.0 kmh 30.27 in1025.1 mb - 0.00 in0.0 mm 0.00 in0.0 mm
06:20 AM 4.9°F-15.1°C -6.0°F-21.1°C 60% Calm Calm 2.3 mph3.7 kmh 30.27 in1025.1 mb - 0.00 in0.0 mm 0.00 in0.0 mm
06:30 AM 4.8°F-15.1°C -6.1°F-21.2°C 60% 4.6 mph NW7.4 kmh NW 8.1 mph13.0 kmh 30.28 in1025.4 mb - 0.00 in0.0 mm 0.00 in0.0 mm
06:40 AM 4.8°F-15.1°C -6.8°F-21.6°C 58% 6.9 mph W11.1 kmh W 9.2 mph14.8 kmh 30.29 in1025.7 mb - 0.00 in0.0 mm 0.00 in0.0 mm
06:50 AM 4.8°F-15.1°C -6.1°F-21.2°C 60% 1.2 mph ENE1.9 kmh ENE 2.3 mph3.7 kmh 30.30 in1026.1 mb - 0.00 in0.0 mm 0.00 in0.0 mm
07:00 AM 4.9°F-15.1°C -6.3°F-21.3°C 59% 3.5 mph NW5.6 kmh NW 5.8 mph9.3 kmh 30.31 in1026.4 mb - 0.00 in0.0 mm 0.00 in0.0 mm
07:10 AM 4.7°F-15.2°C -5.1°F-20.6°C 63% 2.3 mph W3.7 kmh W 2.3 mph3.7 kmh 30.32 in1026.8 mb - 0.00 in0.0 mm 0.00 in0.0 mm
07:20 AM 4.8°F-15.1°C -5.7°F-20.9°C 61% 3.5 mph W5.6 kmh W 9.2 mph14.8 kmh 30.33 in1027.1 mb - 0.00 in0.0 mm 0.00 in0.0 mm
07:30 AM 4.8°F-15.1°C -5.4°F-20.8°C 62% 2.3 mph W3.7 kmh W 5.8 mph9.3 kmh 30.33 in1027.1 mb - 0.00 in0.0 mm 0.00 in0.0 mm
07:40 AM 4.5°F-15.3°C -4.7°F-20.4°C 65% 2.3 mph W3.7 kmh W 2.3 mph3.7 kmh 30.34 in1027.4 mb - 0.00 in0.0 mm 0.00 in0.0 mm
07:50 AM 4.4°F-15.3°C -4.8°F-20.4°C 65% 3.5 mph WSW5.6 kmh WSW 9.2 mph14.8 kmh 30.35 in1027.8 mb - 0.00 in0.0 mm 0.00 in0.0 mm
08:00 AM 4.2°F-15.4°C -5.3°F-20.7°C 64% 4.6 mph WNW7.4 kmh WNW 10.4 mph16.7 kmh 30.36 in1028.1 mb - 0.00 in0.0 mm 0.00 in0.0 mm
08:10 AM 4.3°F-15.4°C -5.9°F-21.1°C 62% 4.6 mph WSW7.4 kmh WSW 8.1 mph13.0 kmh 30.36 in1028.1 mb - 0.00 in0.0 mm 0.00 in0.0 mm
08:20 AM 4.4°F-15.3°C -5.4°F-20.8°C 63% 4.6 mph WSW7.4 kmh WSW 6.9 mph11.1 kmh 30.37 in1028.4 mb - 0.00 in0.0 mm 0.00 in0.0 mm
08:30 AM 4.4°F-15.3°C -5.1°F-20.6°C 64% 3.5 mph W5.6 kmh W 3.5 mph5.6 kmh 30.38 in1028.8 mb - 0.00 in0.0 mm 0.00 in0.0 mm
08:40 AM 4.6°F-15.2°C -4.9°F-20.5°C 64% 4.6 mph WSW7.4 kmh WSW 8.1 mph13.0 kmh 30.38 in1028.8 mb - 0.00 in0.0 mm 0.00 in0.0 mm
08:50 AM 4.9°F-15.1°C -4.3°F-20.2°C 65% 3.5 mph WSW5.6 kmh WSW 8.1 mph13.0 kmh 30.39 in1029.1 mb - 0.00 in0.0 mm 0.00 in0.0 mm
09:00 AM 5.1°F-14.9°C -4.1°F-20.1°C 65% 2.3 mph WSW3.7 kmh WSW 3.5 mph5.6 kmh 30.40 in1029.5 mb - 0.00 in0.0 mm 0.00 in0.0 mm
09:10 AM 5.4°F-14.8°C -4.1°F-20.1°C 64% 1.2 mph WSW1.9 kmh WSW 2.3 mph3.7 kmh 30.39 in1029.1 mb - 0.00 in0.0 mm 0.00 in0.0 mm
09:20 AM 5.9°F-14.5°C -4.7°F-20.4°C 61% 4.6 mph WSW7.4 kmh WSW 6.9 mph11.1 kmh 30.39 in1029.1 mb - 0.00 in0.0 mm 0.00 in0.0 mm
09:30 AM 6.6°F-14.1°C -4.0°F-20.0°C 61% 3.5 mph WSW5.6 kmh WSW 5.8 mph9.3 kmh 30.40 in1029.5 mb - 0.00 in0.0 mm 0.00 in0.0 mm
09:40 AM 7.1°F-13.8°C -4.2°F-20.1°C 59% 3.5 mph WSW5.6 kmh WSW 2.3 mph3.7 kmh 30.41 in1029.8 mb - 0.00 in0.0 mm 0.00 in0.0 mm
09:50 AM 8.2°F-13.2°C -3.2°F-19.6°C 59% 1.2 mph WSW1.9 kmh WSW 2.3 mph3.7 kmh 30.41 in1029.8 mb - 0.00 in0.0 mm 0.00 in0.0 mm
10:00 AM 9.4°F-12.6°C -3.5°F-19.7°C 55% 3.5 mph WSW5.6 kmh WSW 5.8 mph9.3 kmh 30.42 in1030.1 mb - 0.00 in0.0 mm 0.00 in0.0 mm
10:10 AM 10.4°F-12.0°C -3.4°F-19.7°C 53% 2.3 mph W3.7 kmh W 5.8 mph9.3 kmh 30.43 in1030.5 mb - 0.00 in0.0 mm 0.00 in0.0 mm
10:20 AM 11.2°F-11.6°C -2.6°F-19.2°C 53% 3.5 mph NNW5.6 kmh NNW 8.1 mph13.0 kmh 30.42 in1030.1 mb - 0.00 in0.0 mm 0.00 in0.0 mm
10:30 AM 11.9°F-11.2°C -2.8°F-19.3°C 51% 3.5 mph NW5.6 kmh NW 3.5 mph5.6 kmh 30.43 in1030.5 mb - 0.00 in0.0 mm 0.00 in0.0 mm
10:40 AM 12.3°F-10.9°C -2.8°F-19.3°C 50% 1.2 mph WSW1.9 kmh WSW 2.3 mph3.7 kmh 30.44 in1030.8 mb - 0.00 in0.0 mm 0.00 in0.0 mm
10:50 AM 12.7°F-10.7°C -3.8°F-19.9°C 47% 4.6 mph WNW7.4 kmh WNW 10.4 mph16.7 kmh 30.44 in1030.8 mb - 0.00 in0.0 mm 0.00 in0.0 mm
11:00 AM 13.3°F-10.4°C -3.2°F-19.6°C 47% 8.1 mph WSW13.0 kmh WSW 15.0 mph24.1 kmh 30.44 in1030.8 mb - 0.00 in0.0 mm 0.00 in0.0 mm
11:10 AM 14.1°F-9.9°C -2.5°F-19.2°C 47% 2.3 mph SW3.7 kmh SW 15.0 mph24.1 kmh 30.45 in1031.2 mb - 0.00 in0.0 mm 0.00 in0.0 mm
11:20 AM 14.9°F-9.5°C -3.1°F-19.5°C 44% 4.6 mph WSW7.4 kmh WSW 5.8 mph9.3 kmh 30.46 in1031.5 mb - 0.00 in0.0 mm 0.00 in0.0 mm
11:30 AM 16.4°F-8.7°C -1.8°F-18.8°C 44% 1.2 mph NW1.9 kmh NW 3.5 mph5.6 kmh 30.46 in1031.5 mb - 0.00 in0.0 mm 0.00 in0.0 mm
11:40 AM 17.6°F-8.0°C -2.1°F-18.9°C 41% 6.9 mph W11.1 kmh W 8.1 mph13.0 kmh 30.46 in1031.5 mb - 0.00 in0.0 mm 0.00 in0.0 mm
11:50 AM 17.9°F-7.8°C -2.4°F-19.1°C 40% 4.6 mph NW7.4 kmh NW 8.1 mph13.0 kmh 30.46 in1031.5 mb - 0.00 in0.0 mm 0.00 in0.0 mm
12:00 PM 18.1°F-7.7°C -2.7°F-19.3°C 39% 3.5 mph WNW5.6 kmh WNW 8.1 mph13.0 kmh 30.46 in1031.5 mb - 0.00 in0.0 mm 0.00 in0.0 mm
12:10 PM 18.8°F-7.3°C -3.2°F-19.6°C 37% 6.9 mph WNW11.1 kmh WNW 6.9 mph11.1 kmh 30.45 in1031.2 mb - 0.00 in0.0 mm 0.00 in0.0 mm
12:20 PM 19.6°F-6.9°C -2.5°F-19.2°C 37% 5.8 mph W9.3 kmh W 9.2 mph14.8 kmh 30.45 in1031.2 mb - 0.00 in0.0 mm 0.00 in0.0 mm
12:30 PM 20.1°F-6.6°C -1.5°F-18.6°C 38% 5.8 mph W9.3 kmh W 9.2 mph14.8 kmh 30.45 in1031.2 mb - 0.00 in0.0 mm 0.00 in0.0 mm
12:40 PM 20.2°F-6.6°C -4.4°F-20.2°C 33% 6.9 mph NW11.1 kmh NW 9.2 mph14.8 kmh 30.46 in1031.5 mb - 0.00 in0.0 mm 0.00 in0.0 mm
12:50 PM 20.5°F-6.4°C -3.5°F-19.7°C 34% 8.1 mph WSW13.0 kmh WSW 15.0 mph24.1 kmh 30.46 in1031.5 mb - 0.00 in0.0 mm 0.00 in0.0 mm
01:00 PM 21.1°F-6.1°C -3.5°F-19.7°C 33% 5.8 mph SSW9.3 kmh SSW 9.2 mph14.8 kmh 30.46 in1031.5 mb - 0.00 in0.0 mm 0.00 in0.0 mm
01:10 PM 21.5°F-5.8°C -1.9°F-18.8°C 35% 4.6 mph W7.4 kmh W 9.2 mph14.8 kmh 30.45 in1031.2 mb - 0.00 in0.0 mm 0.00 in0.0 mm
01:20 PM 21.8°F-5.7°C -2.9°F-19.4°C 33% 3.5 mph W5.6 kmh W 5.8 mph9.3 kmh 30.45 in1031.2 mb - 0.00 in0.0 mm 0.00 in0.0 mm
01:30 PM 22.8°F-5.1°C -1.4°F-18.6°C 34% 3.5 mph N5.6 kmh N 5.8 mph9.3 kmh 30.45 in1031.2 mb - 0.00 in0.0 mm 0.00 in0.0 mm
01:40 PM 23.4°F-4.8°C -0.9°F-18.3°C 34% 2.3 mph WNW3.7 kmh WNW 11.5 mph18.5 kmh 30.44 in1030.8 mb - 0.00 in0.0 mm 0.00 in0.0 mm
01:50 PM 24.1°F-4.4°C -0.9°F-18.3°C 33% 2.3 mph NW3.7 kmh NW 9.2 mph14.8 kmh 30.44 in1030.8 mb - 0.00 in0.0 mm 0.00 in0.0 mm
02:00 PM 24.7°F-4.1°C 0.3°F-17.6°C 34% 2.3 mph SW3.7 kmh SW 2.3 mph3.7 kmh 30.44 in1030.8 mb - 0.00 in0.0 mm 0.00 in0.0 mm
02:10 PM 24.4°F-4.2°C -1.9°F-18.8°C 31% 10.4 mph WSW16.7 kmh WSW 11.5 mph18.5 kmh 30.45 in1031.2 mb - 0.01 in0.3 mm 0.01 in0.3 mm
02:20 PM 24.9°F-3.9°C -0.9°F-18.3°C 32% 5.8 mph W9.3 kmh W 10.4 mph16.7 kmh 30.45 in1031.2 mb - 0.01 in0.3 mm 0.01 in0.3 mm
02:30 PM 24.8°F-4.0°C -0.2°F-17.9°C 33% 5.8 mph W9.3 kmh W 16.1 mph25.9 kmh 30.46 in1031.5 mb - 0.01 in0.3 mm 0.01 in0.3 mm
02:40 PM 25.8°F-3.4°C 2.5°F-16.4°C 36% 2.3 mph N3.7 kmh N 5.8 mph9.3 kmh 30.46 in1031.5 mb - 0.01 in0.3 mm 0.01 in0.3 mm
02:50 PM 25.9°F-3.4°C 1.3°F-17.1°C 34% 4.6 mph NW7.4 kmh NW 3.5 mph5.6 kmh 30.45 in1031.2 mb - 0.01 in0.3 mm 0.01 in0.3 mm
03:00 PM 26.4°F-3.1°C 1.2°F-17.1°C 33% 3.5 mph NNW5.6 kmh NNW 9.2 mph14.8 kmh 30.44 in1030.8 mb - 0.01 in0.3 mm 0.01 in0.3 mm
03:10 PM 26.2°F-3.2°C 0.3°F-17.6°C 32% 2.3 mph NW3.7 kmh NW 9.2 mph14.8 kmh 30.46 in1031.5 mb - 0.00 in0.0 mm 0.01 in0.3 mm
03:20 PM 26.2°F-3.2°C -1.1°F-18.4°C 30% 6.9 mph NW11.1 kmh NW 9.2 mph14.8 kmh 30.45 in1031.2 mb - 0.00 in0.0 mm 0.01 in0.3 mm
03:30 PM 25.9°F-3.4°C -0.7°F-18.2°C 31% 5.8 mph WSW9.3 kmh WSW 9.2 mph14.8 kmh 30.46 in1031.5 mb - 0.00 in0.0 mm 0.01 in0.3 mm
03:40 PM 25.5°F-3.6°C -0.3°F-17.9°C 32% 3.5 mph NW5.6 kmh NW 3.5 mph5.6 kmh 30.46 in1031.5 mb - 0.00 in0.0 mm 0.01 in0.3 mm
03:50 PM 25.0°F-3.9°C -1.4°F-18.6°C 31% 2.3 mph SW3.7 kmh SW 2.3 mph3.7 kmh 30.47 in1031.8 mb - 0.00 in0.0 mm 0.01 in0.3 mm
04:00 PM 25.0°F-3.9°C -0.8°F-18.2°C 32% 6.9 mph SW11.1 kmh SW 9.2 mph14.8 kmh 30.47 in1031.8 mb - 0.00 in0.0 mm 0.01 in0.3 mm
04:10 PM 25.3°F-3.7°C 0.2°F-17.7°C 33% 2.3 mph NNW3.7 kmh NNW 2.3 mph3.7 kmh 30.47 in1031.8 mb - 0.00 in0.0 mm 0.01 in0.3 mm
04:20 PM 25.5°F-3.6°C -0.3°F-17.9°C 32% 4.6 mph W7.4 kmh W 6.9 mph11.1 kmh 30.48 in1032.2 mb - 0.00 in0.0 mm 0.01 in0.3 mm
04:30 PM 25.5°F-3.6°C 0.3°F-17.6°C 33% 1.2 mph WSW1.9 kmh WSW 8.1 mph13.0 kmh 30.48 in1032.2 mb - 0.00 in0.0 mm 0.01 in0.3 mm
04:40 PM 25.5°F-3.6°C 2.2°F-16.6°C 36% 3.5 mph WSW5.6 kmh WSW 8.1 mph13.0 kmh 30.49 in1032.5 mb - 0.00 in0.0 mm 0.01 in0.3 mm
04:50 PM 25.2°F-3.8°C -1.2°F-18.4°C 31% 3.5 mph N5.6 kmh N 3.5 mph5.6 kmh 30.49 in1032.5 mb - 0.00 in0.0 mm 0.01 in0.3 mm
05:00 PM 24.7°F-4.1°C 0.2°F-17.7°C 34% Calm Calm 2.3 mph3.7 kmh 30.48 in1032.2 mb - 0.00 in0.0 mm 0.01 in0.3 mm
05:10 PM 24.0°F-4.4°C 0.9°F-17.3°C 36% 2.3 mph N3.7 kmh N 1.2 mph1.9 kmh 30.48 in1032.2 mb - 0.00 in0.0 mm 0.01 in0.3 mm
05:20 PM 23.1°F-4.9°C 2.9°F-16.2°C 41% Calm Calm -- 30.48 in1032.2 mb - 0.00 in0.0 mm 0.01 in0.3 mm
05:30 PM 22.2°F-5.4°C 4.1°F-15.5°C 45% Calm Calm -- 30.48 in1032.2 mb - 0.00 in0.0 mm 0.01 in0.3 mm
05:40 PM 21.4°F-5.9°C 5.2°F-14.9°C 49% Calm Calm -- 30.48 in1032.2 mb - 0.00 in0.0 mm 0.01 in0.3 mm
05:50 PM 21.0°F-6.1°C 4.4°F-15.3°C 48% Calm Calm -- 30.49 in1032.5 mb - 0.00 in0.0 mm 0.01 in0.3 mm
06:00 PM 20.3°F-6.5°C 8.2°F-13.2°C 59% Calm Calm -- 30.48 in1032.2 mb - 0.00 in0.0 mm 0.01 in0.3 mm
06:10 PM 19.1°F-7.2°C 7.9°F-13.4°C 61% Calm Calm -- 30.48 in1032.2 mb - 0.00 in0.0 mm 0.01 in0.3 mm
06:20 PM 18.7°F-7.4°C 7.9°F-13.4°C 62% Calm Calm -- 30.48 in1032.2 mb - 0.00 in0.0 mm 0.01 in0.3 mm
06:30 PM 18.5°F-7.5°C 5.8°F-14.6°C 57% Calm Calm -- 30.48 in1032.2 mb - 0.00 in0.0 mm 0.01 in0.3 mm
06:40 PM 17.8°F-7.9°C 6.3°F-14.3°C 60% Calm Calm -- 30.49 in1032.5 mb - 0.00 in0.0 mm 0.01 in0.3 mm
06:50 PM 16.9°F-8.4°C 7.5°F-13.6°C 66% Calm Calm -- 30.49 in1032.5 mb - 0.00 in0.0 mm 0.01 in0.3 mm
07:00 PM 16.6°F-8.6°C 7.2°F-13.8°C 66% Calm Calm -- 30.49 in1032.5 mb - 0.00 in0.0 mm 0.01 in0.3 mm
07:10 PM 16.8°F-8.4°C 7.7°F-13.5°C 67% Calm Calm -- 30.49 in1032.5 mb - 0.00 in0.0 mm 0.01 in0.3 mm
07:20 PM 16.2°F-8.8°C 7.2°F-13.8°C 67% Calm Calm -- 30.51 in1033.2 mb - 0.00 in0.0 mm 0.01 in0.3 mm
07:30 PM 15.4°F-9.2°C 7.4°F-13.7°C 70% Calm Calm -- 30.51 in1033.2 mb - 0.00 in0.0 mm 0.01 in0.3 mm
07:40 PM 15.2°F-9.3°C 8.1°F-13.3°C 73% Calm Calm -- 30.52 in1033.5 mb - 0.00 in0.0 mm 0.01 in0.3 mm
07:50 PM 15.9°F-8.9°C 8.4°F-13.1°C 72% Calm Calm -- 30.52 in1033.5 mb - 0.00 in0.0 mm 0.01 in0.3 mm
08:00 PM 15.9°F-8.9°C 8.4°F-13.1°C 72% Calm Calm -- 30.51 in1033.2 mb - 0.00 in0.0 mm 0.01 in0.3 mm
08:10 PM 15.6°F-9.1°C 9.1°F-12.7°C 75% Calm Calm -- 30.51 in1033.2 mb - 0.00 in0.0 mm 0.01 in0.3 mm
08:20 PM 15.8°F-9.0°C 9.3°F-12.6°C 75% Calm Calm -- 30.51 in1033.2 mb - 0.00 in0.0 mm 0.01 in0.3 mm
08:30 PM 15.9°F-8.9°C 9.1°F-12.7°C 74% Calm Calm -- 30.52 in1033.5 mb - 0.00 in0.0 mm 0.01 in0.3 mm
08:40 PM 16.3°F-8.7°C 7.6°F-13.6°C 68% Calm Calm -- 30.52 in1033.5 mb - 0.00 in0.0 mm 0.01 in0.3 mm
08:50 PM 16.6°F-8.6°C 7.8°F-13.4°C 68% Calm Calm -- 30.51 in1033.2 mb - 0.00 in0.0 mm 0.01 in0.3 mm
09:00 PM 16.9°F-8.4°C 7.2°F-13.8°C 65% Calm Calm -- 30.50 in1032.8 mb - 0.00 in0.0 mm 0.01 in0.3 mm
09:10 PM 17.4°F-8.1°C 5.1°F-14.9°C 58% Calm Calm -- 30.50 in1032.8 mb - 0.00 in0.0 mm 0.01 in0.3 mm
09:20 PM 17.9°F-7.8°C 7.4°F-13.7°C 63% Calm Calm -- 30.49 in1032.5 mb - 0.00 in0.0 mm 0.01 in0.3 mm
09:30 PM 18.1°F-7.7°C 7.2°F-13.8°C 62% Calm Calm -- 30.49 in1032.5 mb - 0.00 in0.0 mm 0.01 in0.3 mm
09:40 PM 17.8°F-7.9°C 6.9°F-13.9°C 62% Calm Calm -- 30.49 in1032.5 mb - 0.00 in0.0 mm 0.01 in0.3 mm
09:50 PM 17.4°F-8.1°C 6.2°F-14.3°C 61% Calm Calm -- 30.49 in1032.5 mb - 0.00 in0.0 mm 0.01 in0.3 mm
10:00 PM 17.5°F-8.1°C 5.9°F-14.5°C 60% Calm Calm -- 30.50 in1032.8 mb - 0.00 in0.0 mm 0.01 in0.3 mm
10:10 PM 17.3°F-8.2°C 6.5°F-14.2°C 62% Calm Calm -- 30.50 in1032.8 mb - 0.00 in0.0 mm 0.01 in0.3 mm
10:20 PM 16.8°F-8.4°C 6.7°F-14.1°C 64% Calm Calm -- 30.50 in1032.8 mb - 0.00 in0.0 mm 0.01 in0.3 mm
10:30 PM 16.1°F-8.8°C 5.3°F-14.8°C 62% Calm Calm -- 30.51 in1033.2 mb - 0.00 in0.0 mm 0.01 in0.3 mm
10:40 PM 15.8°F-9.0°C 6.4°F-14.2°C 66% Calm Calm -- 30.50 in1032.8 mb - 0.00 in0.0 mm 0.01 in0.3 mm
10:50 PM 15.1°F-9.4°C 6.4°F-14.2°C 68% Calm Calm -- 30.50 in1032.8 mb - 0.00 in0.0 mm 0.01 in0.3 mm
11:00 PM 14.9°F-9.5°C 6.2°F-14.3°C 68% Calm Calm -- 30.51 in1033.2 mb - 0.00 in0.0 mm 0.01 in0.3 mm
11:10 PM 14.9°F-9.5°C 5.6°F-14.7°C 66% Calm Calm -- 30.51 in1033.2 mb - 0.00 in0.0 mm 0.01 in0.3 mm
11:20 PM 14.8°F-9.6°C 5.8°F-14.6°C 67% Calm Calm -- 30.50 in1032.8 mb - 0.00 in0.0 mm 0.01 in0.3 mm
11:30 PM 14.4°F-9.8°C 5.8°F-14.6°C 68% Calm Calm -- 30.50 in1032.8 mb - 0.00 in0.0 mm 0.01 in0.3 mm
11:40 PM 14.3°F-9.8°C 5.3°F-14.8°C 67% Calm Calm -- 30.49 in1032.5 mb - 0.00 in0.0 mm 0.01 in0.3 mm
11:50 PM 14.5°F-9.7°C 6.2°F-14.3°C 69% Calm Calm -- 30.49 in1032.5 mb - 0.00 in0.0 mm 0.01 in0.3 mm